Time;durP1;ratioP1;P1;durP2;ratioP2;P2;SDS_P1;SDS_P2;PMS_P1;PMS_P2;Temp;Humidity;BMP_temperature;BMP_pressure;BME280_temperature;BME280_humidity;BME280_pressure;Samples;Min_cycle;Max_cycle;Signal;HPM_P1;HPM_P2
2022/12/08 00:02:05;;;;;;;28.58;13.73;;;;;;;-0.77;100.00;100236.41;7395870;19;20190;-61
2022/12/08 00:09:20;;;;;;;34.20;14.25;;;;;;;-0.81;100.00;100236.94;7396030;19;20586;-61
2022/12/08 00:10:08;;;;;;;34.13;15.57;;;;;;;-0.80;100.00;100227.69;7391881;19;20172;-62
2022/12/08 00:12:57;;;;;;;29.77;12.93;;;;;;;-0.88;100.00;100234.69;7396065;19;20155;-60
2022/12/08 00:15:27;;;;;;;32.63;15.30;;;;;;;-0.87;100.00;100224.66;7395537;19;20201;-61
2022/12/08 00:17:59;;;;;;;30.33;14.10;;;;;;;-0.83;100.00;100223.25;7394783;19;20207;-61
2022/12/08 00:20:29;;;;;;;33.97;14.40;;;;;;;-0.76;100.00;100220.47;7392533;19;20670;-62
2022/12/08 00:22:59;;;;;;;33.88;15.05;;;;;;;-0.81;100.00;100219.22;7395662;19;20223;-61
2022/12/08 00:25:29;;;;;;;35.17;16.00;;;;;;;-0.80;100.00;100218.44;7392531;19;20190;-61
2022/12/08 00:27:58;;;;;;;34.85;15.57;;;;;;;-0.78;100.00;100206.78;7396874;19;20603;-61
2022/12/08 00:30:28;;;;;;;38.42;16.80;;;;;;;-0.76;100.00;100209.44;7390628;19;20206;-60
2022/12/08 00:33:00;;;;;;;40.63;18.63;;;;;;;-0.72;100.00;100217.38;7394973;19;20127;-62
2022/12/08 00:35:29;;;;;;;36.08;16.10;;;;;;;-0.72;100.00;100207.25;7392107;19;20190;-60
2022/12/08 00:37:59;;;;;;;34.63;17.52;;;;;;;-0.72;100.00;100204.72;7395471;19;20127;-61
2022/12/08 00:40:29;;;;;;;33.13;16.63;;;;;;;-0.72;100.00;100206.38;7390342;19;20190;-63
2022/12/08 00:42:58;;;;;;;35.88;16.30;;;;;;;-0.71;100.00;100211.56;7395230;19;20150;-60
2022/12/08 00:45:29;;;;;;;26.40;13.30;;;;;;;-0.71;100.00;100209.03;7391922;19;20194;-61
2022/12/08 00:48:01;;;;;;;23.48;10.93;;;;;;;-0.71;100.00;100203.09;7394862;19;20190;-61
2022/12/08 00:50:31;;;;;;;34.00;16.63;;;;;;;-0.63;100.00;100201.13;7390723;19;20551;-59
2022/12/08 00:53:00;;;;;;;37.65;17.13;;;;;;;-0.62;100.00;100208.00;7394720;19;20127;-60
2022/12/08 00:55:30;;;;;;;36.92;16.40;;;;;;;-0.61;100.00;100197.94;7392366;19;20182;-59
2022/12/08 00:58:00;;;;;;;33.72;15.98;;;;;;;-0.59;100.00;100200.59;7396376;19;20219;-60
2022/12/08 01:00:30;;;;;;;32.83;16.23;;;;;;;-0.47;100.00;100191.41;7390701;19;20198;-59
2022/12/08 01:03:02;;;;;;;38.28;16.88;;;;;;;-0.52;100.00;100187.63;7394064;19;20139;-60
2022/12/08 01:05:32;;;;;;;40.15;17.40;;;;;;;-0.49;100.00;100187.88;7391193;19;20190;-60
2022/12/08 01:08:01;;;;;;;37.00;17.20;;;;;;;-0.48;100.00;100189.66;7394495;19;20145;-63
2022/12/08 01:10:31;;;;;;;35.83;17.90;;;;;;;-0.45;100.00;100184.81;7389167;19;20222;-61
2022/12/08 01:13:00;;;;;;;31.17;14.48;;;;;;;-0.49;100.00;100185.34;7390874;19;20524;-60
2022/12/08 01:15:30;;;;;;;29.85;14.63;;;;;;;-0.42;100.00;100187.59;7387865;19;20672;-60
2022/12/08 01:18:03;;;;;;;31.67;15.48;;;;;;;-0.41;100.00;100179.22;7390329;19;20127;-61
2022/12/08 01:20:33;;;;;;;26.85;14.63;;;;;;;-0.42;100.00;100191.75;7386160;19;20202;-60
2022/12/08 01:23:02;;;;;;;27.75;14.57;;;;;;;-0.36;100.00;100186.28;7390123;19;20134;-61
2022/12/08 01:25:32;;;;;;;24.92;12.68;;;;;;;-0.32;100.00;100190.81;7390205;19;20195;-63
2022/12/08 01:28:01;;;;;;;26.48;12.68;;;;;;;-0.31;100.00;100187.53;7390772;19;20131;-60
2022/12/08 01:30:31;;;;;;;27.55;13.48;;;;;;;-0.27;100.00;100181.91;7383765;19;20577;-60
2022/12/08 01:33:03;;;;;;;25.40;12.77;;;;;;;-0.24;100.00;100177.09;7394439;19;20637;-60
2022/12/08 01:35:32;;;;;;;22.63;11.75;;;;;;;-0.23;100.00;100173.78;7387824;19;20198;-60
2022/12/08 01:38:02;;;;;;;28.48;12.98;;;;;;;-0.24;100.00;100177.09;7390487;19;20134;-61
2022/12/08 01:40:32;;;;;;;24.20;10.50;;;;;;;-0.16;100.00;100167.50;7385771;19;20198;-60
2022/12/08 01:43:01;;;;;;;20.27;11.85;;;;;;;-0.19;100.00;100168.19;7390723;19;20139;-62
2022/12/08 01:45:32;;;;;;;29.50;14.57;;;;;;;-0.17;100.00;100169.16;7387839;19;20186;-61
2022/12/08 01:48:07;;;;;;;21.65;11.35;;;;;;;-0.19;100.00;100158.03;7390874;19;20131;-61
2022/12/08 01:50:37;;;;;;;19.88;11.13;;;;;;;-0.21;100.00;100151.09;7386707;19;20197;-60
2022/12/08 01:53:10;;;;;;;23.58;11.10;;;;;;;-0.23;100.00;100156.03;7391277;19;20123;-61
2022/12/08 01:55:43;;;;;;;20.80;11.35;;;;;;;-0.18;100.00;100157.25;7388082;19;20690;-59
2022/12/08 01:58:16;;;;;;;20.25;11.05;;;;;;;-0.14;100.00;100159.25;7391456;19;20130;-61
2022/12/08 02:00:46;;;;;;;19.55;10.20;;;;;;;-0.11;100.00;100157.72;7387038;19;20228;-60
2022/12/08 02:03:21;;;;;;;21.00;10.70;;;;;;;-0.15;100.00;100167.63;7392083;19;20138;-62
2022/12/08 02:05:51;;;;;;;17.67;8.25;;;;;;;-0.13;100.00;100165.22;7388890;19;20193;-58
2022/12/08 02:08:21;;;;;;;18.38;10.00;;;;;;;-0.15;100.00;100162.56;7391533;19;20134;-58
2022/12/08 02:10:52;;;;;;;21.92;7.55;;;;;;;-0.21;100.00;100169.69;7387703;19;20197;-60
2022/12/08 02:13:23;;;;;;;18.55;10.32;;;;;;;-0.21;100.00;100167.16;7391964;19;20150;-57
2022/12/08 02:16:00;;;;;;;14.27;6.30;;;;;;;-0.21;100.00;100166.28;7391163;19;20217;-60
2022/12/08 02:18:45;;;;;;;16.17;8.88;;;;;;;-0.23;100.00;100163.63;7390952;19;20135;-61
2022/12/08 02:21:39;;;;;;;15.85;7.38;;;;;;;-0.20;100.00;100163.00;7389412;19;20193;-59
2022/12/08 02:24:14;;;;;;;9.63;6.13;;;;;;;-0.22;100.00;100149.28;7391858;19;20624;-60
2022/12/08 02:27:10;;;;;;;18.80;4.28;;;;;;;-0.21;100.00;100141.81;7387712;19;20682;-61
2022/12/08 02:30:15;;;;;;;13.43;7.70;;;;;;;-0.26;100.00;100143.09;7390464;19;20166;-63
2022/12/08 02:33:11;;;;;;;7.65;4.65;;;;;;;-0.32;100.00;100138.47;7391102;19;20174;-60
2022/12/08 02:35:49;;;;;;;12.23;6.30;;;;;;;-0.34;100.00;100139.13;7389003;19;20203;-59
2022/12/08 02:38:25;;;;;;;10.50;5.55;;;;;;;-0.39;100.00;100131.16;7391737;19;20127;-63
2022/12/08 02:41:01;;;;;;;11.32;6.80;;;;;;;-0.28;100.00;100134.50;7385440;19;20542;-60
2022/12/08 02:43:35;;;;;;;13.05;5.95;;;;;;;-0.35;100.00;100127.22;7393886;19;20369;-62
2022/12/08 02:46:07;;;;;;;17.00;8.60;;;;;;;-0.29;100.00;100128.53;7388464;19;20190;-61
2022/12/08 02:48:37;;;;;;;13.63;7.80;;;;;;;-0.34;100.00;100134.03;7390562;19;20134;-62
2022/12/08 02:51:09;;;;;;;15.38;8.15;;;;;;;-0.29;100.00;100127.69;7388036;19;20759;-60
2022/12/08 02:53:38;;;;;;;12.25;7.80;;;;;;;-0.29;100.00;100130.22;7392426;19;20668;-62
2022/12/08 02:56:17;;;;;;;13.35;8.40;;;;;;;-0.24;100.00;100128.91;7388355;19;20190;-60
2022/12/08 02:59:07;;;;;;;16.35;9.10;;;;;;;-0.25;100.00;100134.75;7390493;19;21057;-60
2022/12/08 03:01:50;;;;;;;9.88;5.15;;;;;;;-0.24;100.00;100126.38;7388167;19;20214;-61
2022/12/08 03:04:24;;;;;;;14.98;8.93;;;;;;;-0.23;100.00;100122.16;7391352;19;20158;-61
2022/12/08 03:07:01;;;;;;;16.70;8.70;;;;;;;0.09;100.00;100123.66;7387691;19;20855;-60
2022/12/08 03:09:36;;;;;;;14.13;7.32;;;;;;;0.07;100.00;100127.75;7390016;19;20162;-60
2022/12/08 03:12:10;;;;;;;16.02;6.53;;;;;;;0.04;100.00;100119.94;7387550;19;20197;-61
2022/12/08 03:14:41;;;;;;;12.73;7.93;;;;;;;0.06;100.00;100120.94;7390536;19;20153;-59
2022/12/08 03:17:10;;;;;;;15.77;7.55;;;;;;;0.13;100.00;100111.34;7387963;19;20225;-61
2022/12/08 03:19:41;;;;;;;6.53;3.03;;;;;;;0.30;100.00;100111.66;7389097;19;20529;-60
2022/12/08 03:22:15;;;;;;;8.65;4.57;;;;;;;0.08;100.00;100099.97;7388247;19;20202;-62
2022/12/08 03:24:45;;;;;;;12.17;6.80;;;;;;;0.14;100.00;100094.44;7390657;19;20127;-63
2022/12/08 03:27:17;;;;;;;13.73;6.20;;;;;;;0.16;100.00;100095.47;7386826;19;20442;-62
2022/12/08 03:29:48;;;;;;;11.20;5.63;;;;;;;0.08;100.00;100094.00;7388349;19;20194;-62
2022/12/08 03:32:24;;;;;;;8.60;5.60;;;;;;;0.08;100.00;100092.38;7391194;19;20194;-61
2022/12/08 03:34:56;;;;;;;10.20;5.65;;;;;;;0.06;100.00;100093.03;7393646;19;20399;-62
2022/12/08 03:37:28;;;;;;;10.43;4.73;;;;;;;0.14;100.00;100091.91;7389382;19;20204;-62
2022/12/08 03:39:58;;;;;;;12.55;5.28;;;;;;;0.12;100.00;100091.78;7386208;19;20448;-61
2022/12/08 03:42:27;;;;;;;8.50;4.60;;;;;;;0.12;100.00;100094.31;7389300;19;20137;-63
2022/12/08 03:44:57;;;;;;;7.95;4.10;;;;;;;0.23;100.00;100099.31;7389793;19;20376;-62
2022/12/08 03:47:26;;;;;;;8.57;5.30;;;;;;;0.28;100.00;100092.94;7388353;19;20668;-63
2022/12/08 03:49:56;;;;;;;7.60;4.57;;;;;;;0.36;100.00;100090.94;7388392;19;20163;-63
2022/12/08 03:52:28;;;;;;;8.75;3.95;;;;;;;0.22;100.00;100090.84;7389107;19;20534;-62
2022/12/08 03:54:57;;;;;;;6.20;3.43;;;;;;;0.20;100.00;100094.91;7393233;19;20127;-62
2022/12/08 03:57:27;;;;;;;6.88;3.90;;;;;;;0.30;100.00;100095.59;7395882;19;20393;-63
2022/12/08 03:59:56;;;;;;;6.70;4.10;;;;;;;0.26;100.00;100094.47;7395385;19;20621;-62
2022/12/08 04:02:26;;;;;;;5.10;3.20;;;;;;;0.16;100.00;100102.19;7396587;19;20391;-61
2022/12/08 04:04:55;;;;;;;7.35;3.72;;;;;;;0.15;100.00;100095.34;7396731;19;20406;-62
2022/12/08 04:07:27;;;;;;;5.93;3.63;;;;;;;0.15;100.00;100100.41;7395127;19;20189;-62
2022/12/08 04:09:57;;;;;;;3.65;2.60;;;;;;;0.15;100.00;100095.34;7395277;19;20190;-63
2022/12/08 04:12:26;;;;;;;4.35;2.55;;;;;;;0.06;100.00;100091.34;7395530;19;20178;-62
2022/12/08 04:14:56;;;;;;;5.07;3.13;;;;;;;0.13;100.00;100102.84;7396296;19;20123;-63
2022/12/08 04:17:25;;;;;;;6.28;3.75;;;;;;;0.09;100.00;100089.03;7395233;19;20205;-62
2022/12/08 04:19:55;;;;;;;5.03;2.92;;;;;;;0.03;100.00;100091.13;7399652;19;20193;-61
2022/12/08 04:22:24;;;;;;;4.28;2.83;;;;;;;0.05;100.00;100089.59;7395589;19;20660;-62
2022/12/08 04:24:56;;;;;;;4.65;3.35;;;;;;;0.09;100.00;100090.69;7396142;19;20182;-60
2022/12/08 04:27:26;;;;;;;5.53;3.65;;;;;;;0.07;100.00;100088.06;7394807;19;20666;-59
2022/12/08 04:29:55;;;;;;;5.20;3.55;;;;;;;0.06;100.00;100086.28;7393849;19;20185;-62
2022/12/08 04:32:25;;;;;;;5.05;3.28;;;;;;;0.09;100.00;100086.50;7395429;19;20208;-62
2022/12/08 04:34:54;;;;;;;6.13;3.65;;;;;;;0.04;100.00;100092.91;7395989;19;20591;-60
2022/12/08 04:37:23;;;;;;;6.45;3.45;;;;;;;0.07;100.00;100092.25;7393226;19;20241;-62
2022/12/08 04:39:53;;;;;;;6.43;3.90;;;;;;;0.28;100.00;100095.47;7393872;19;20275;-61
2022/12/08 04:42:25;;;;;;;5.32;3.83;;;;;;;0.20;100.00;100094.91;7394520;19;20199;-61
2022/12/08 04:44:54;;;;;;;4.60;2.85;;;;;;;0.12;100.00;100089.25;7395578;19;20143;-61
2022/12/08 04:47:24;;;;;;;4.60;3.53;;;;;;;0.19;100.00;100092.25;7394344;19;20667;-62
2022/12/08 04:49:53;;;;;;;4.93;3.55;;;;;;;0.20;100.00;100094.03;7393822;19;20770;-62
2022/12/08 04:52:23;;;;;;;3.70;2.55;;;;;;;0.12;100.00;100089.25;7394593;19;20190;-62
2022/12/08 04:54:52;;;;;;;4.30;2.90;;;;;;;0.10;100.00;100087.41;7395194;19;20166;-61
2022/12/08 04:57:24;;;;;;;4.75;2.95;;;;;;;0.06;100.00;100073.59;7392459;19;20849;-62
2022/12/08 04:59:54;;;;;;;10.02;2.92;;;;;;;0.12;100.00;100076.56;7395033;19;20908;-62
2022/12/08 05:02:24;;;;;;;6.10;2.75;;;;;;;0.08;100.00;100078.78;7393785;19;20201;-61
2022/12/08 05:04:53;;;;;;;4.07;2.55;;;;;;;0.11;100.00;100068.88;7394714;19;20206;-61
2022/12/08 05:07:23;;;;;;;4.57;2.80;;;;;;;0.06;100.00;100073.59;7393250;19;20189;-61
2022/12/08 05:09:52;;;;;;;5.68;3.80;;;;;;;0.06;100.00;100071.06;7393173;19;20643;-61
2022/12/08 05:12:21;;;;;;;2.83;1.80;;;;;;;0.07;100.00;100077.03;7391363;19;20543;-62
2022/12/08 05:14:53;;;;;;;4.68;2.92;;;;;;;0.03;100.00;100091.13;7394593;19;20475;-61
2022/12/08 05:17:23;;;;;;;4.95;3.28;;;;;;;0.08;100.00;100074.59;7393522;19;20190;-61
2022/12/08 05:19:52;;;;;;;4.93;3.25;;;;;;;0.10;100.00;100082.34;7393143;19;20170;-61
2022/12/08 05:22:22;;;;;;;5.18;3.38;;;;;;;0.12;100.00;100086.72;7392474;19;20224;-61
2022/12/08 05:24:51;;;;;;;5.00;3.00;;;;;;;0.14;100.00;100089.38;7395877;19;20135;-61
2022/12/08 05:27:20;;;;;;;3.97;3.08;;;;;;;0.16;100.00;100105.63;7391582;19;20190;-61
2022/12/08 05:29:50;;;;;;;4.80;3.22;;;;;;;0.18;100.00;100106.59;7392446;19;20185;-59
2022/12/08 05:32:22;;;;;;;3.85;2.95;;;;;;;0.21;100.00;100100.88;7390737;19;20190;-60
2022/12/08 05:34:51;;;;;;;6.05;3.85;;;;;;;0.13;100.00;100106.28;7393458;19;20159;-58
2022/12/08 05:37:21;;;;;;;6.20;3.80;;;;;;;0.10;100.00;100097.56;7390944;19;20562;-57
2022/12/08 05:39:50;;;;;;;5.60;3.90;;;;;;;0.09;100.00;100096.66;7392785;19;20186;-60
2022/12/08 05:42:20;;;;;;;7.03;3.92;;;;;;;0.13;100.00;100088.50;7390223;19;20192;-59
2022/12/08 05:44:53;;;;;;;4.80;3.08;;;;;;;0.15;100.00;100100.41;7393511;19;20135;-61
2022/12/08 05:47:25;;;;;;;3.85;2.92;;;;;;;0.07;100.00;100103.28;7393209;19;20186;-62
2022/12/08 05:49:57;;;;;;;5.30;3.42;;;;;;;0.06;100.00;100106.56;7392294;19;20624;-61
2022/12/08 05:52:26;;;;;;;3.42;2.78;;;;;;;-0.01;100.00;100105.25;7392630;19;20657;-62
2022/12/08 05:54:55;;;;;;;4.07;2.78;;;;;;;0.02;100.00;100099.53;7393013;19;20149;-60
2022/12/08 05:57:26;;;;;;;2.25;1.80;;;;;;;-0.11;100.00;100109.53;7392553;19;20178;-60
2022/12/08 05:59:58;;;;;;;4.15;2.38;;;;;;;-0.12;100.00;100107.78;7391854;19;20351;-60
2022/12/08 06:02:30;;;;;;;2.90;1.40;;;;;;;-0.07;100.00;100112.41;7392469;19;20186;-62
2022/12/08 06:05:00;;;;;;;3.70;2.55;;;;;;;-0.08;100.00;100109.75;7390283;19;20140;-60
2022/12/08 06:07:29;;;;;;;3.78;2.45;;;;;;;-0.07;100.00;100103.91;7392038;19;20137;-57
2022/12/08 06:10:01;;;;;;;3.50;2.03;;;;;;;-0.06;100.00;100104.03;7387353;19;20167;-62
2022/12/08 06:12:31;;;;;;;2.97;2.00;;;;;;;-0.10;100.00;100103.69;7392240;19;20153;-62
2022/12/08 06:15:01;;;;;;;3.30;1.90;;;;;;;-0.12;100.00;100102.69;7390256;19;20601;-60
2022/12/08 06:17:33;;;;;;;2.70;1.83;;;;;;;-0.06;100.00;100100.63;7391092;19;20512;-61
2022/12/08 06:20:02;;;;;;;2.30;1.80;;;;;;;-0.01;100.00;100107.78;7388811;19;20167;-60
2022/12/08 06:22:32;;;;;;;4.28;2.25;;;;;;;0.12;100.00;100113.75;7391933;19;20603;-60
2022/12/08 06:25:02;;;;;;;4.13;2.35;;;;;;;0.15;100.00;100110.56;7385522;19;20135;-59
2022/12/08 06:27:37;;;;;;;4.18;2.72;;;;;;;0.13;100.00;100113.88;7396650;19;20146;-61
2022/12/08 06:30:09;;;;;;;6.60;2.50;;;;;;;0.11;100.00;100112.00;7386630;19;20517;-61
2022/12/08 06:32:41;;;;;;;4.65;2.60;;;;;;;-0.04;100.00;100116.81;7390877;19;20395;-60
2022/12/08 06:35:11;;;;;;;3.95;2.08;;;;;;;-0.01;100.00;100114.50;7389216;19;20137;-61
2022/12/08 06:37:40;;;;;;;4.88;2.45;;;;;;;-0.08;100.00;100117.34;7390866;19;20127;-61
2022/12/08 06:40:11;;;;;;;3.45;2.00;;;;;;;-0.18;100.00;100116.69;7388146;19;20648;-61
2022/12/08 06:42:48;;;;;;;3.55;2.30;;;;;;;-0.06;100.00;100126.84;7391560;19;20131;-62
2022/12/08 06:45:19;;;;;;;4.30;2.45;;;;;;;-0.10;100.00;100126.53;7389683;19;21058;-61
2022/12/08 06:47:51;;;;;;;2.88;2.08;;;;;;;-0.06;100.00;100131.06;7391559;19;20131;-62
2022/12/08 06:50:20;;;;;;;3.80;2.40;;;;;;;-0.02;100.00;100127.97;7387047;19;20206;-61
2022/12/08 06:52:50;;;;;;;3.55;2.40;;;;;;;-0.09;100.00;100130.81;7390915;19;20532;-61
2022/12/08 06:55:33;;;;;;;4.47;2.75;;;;;;;-0.06;100.00;100131.06;7389179;19;20219;-60
2022/12/08 06:58:22;;;;;;;5.00;2.63;;;;;;;0.04;100.00;100130.09;7391119;19;20496;-63
2022/12/08 07:00:52;;;;;;;4.38;3.17;;;;;;;0.10;100.00;100123.78;7387713;19;20194;-60
2022/12/08 07:03:24;;;;;;;5.40;3.47;;;;;;;0.22;100.00;100122.94;7390981;19;20127;-60
2022/12/08 07:05:57;;;;;;;15.57;8.05;;;;;;;0.45;100.00;100126.28;7389796;19;20199;-61
2022/12/08 07:08:32;;;;;;;6.40;4.00;;;;;;;0.25;100.00;100124.03;7390016;19;20136;-62
2022/12/08 07:11:01;;;;;;;18.13;9.18;;;;;;;0.51;100.00;100114.88;7387279;19;20407;-62
2022/12/08 07:13:31;;;;;;;6.38;3.30;;;;;;;0.23;100.00;100119.63;7390494;19;20123;-62
2022/12/08 07:16:00;;;;;;;15.20;7.40;;;;;;;0.28;100.00;100110.69;7388178;19;20187;-60
2022/12/08 07:18:32;;;;;;;8.87;3.90;;;;;;;0.14;100.00;100117.28;7389722;19;20618;-61
2022/12/08 07:21:05;;;;;;;6.43;3.90;;;;;;;0.21;100.00;100121.16;7389737;19;20463;-61
2022/12/08 07:23:35;;;;;;;12.52;6.38;;;;;;;0.31;100.00;100118.50;7390911;19;20128;-61
2022/12/08 07:26:05;;;;;;;37.28;15.93;;;;;;;0.83;100.00;100120.50;7387904;19;20190;-59
2022/12/08 07:28:35;;;;;;;6.43;4.13;;;;;;;0.62;100.00;100115.66;7391054;19;20131;-59
2022/12/08 07:31:05;;;;;;;8.00;4.60;;;;;;;0.15;100.00;100120.72;7393757;19;20465;-61
2022/12/08 07:33:37;;;;;;;8.83;5.13;;;;;;;0.15;100.00;100121.59;7397958;19;20419;-62
2022/12/08 07:36:07;;;;;;;5.88;3.90;;;;;;;0.03;100.00;100118.16;7394913;19;20424;-61
2022/12/08 07:38:37;;;;;;;7.53;4.75;;;;;;;0.01;100.00;100128.19;7396624;19;20132;-60
2022/12/08 07:41:07;;;;;;;8.20;4.63;;;;;;;-0.05;100.00;100130.28;7393871;19;20221;-61
2022/12/08 07:43:36;;;;;;;7.97;5.20;;;;;;;-0.13;100.00;100132.25;7398861;19;20148;-61
2022/12/08 07:46:06;;;;;;;8.50;4.72;;;;;;;-0.17;100.00;100136.19;7394645;19;20233;-60
2022/12/08 07:48:38;;;;;;;6.63;4.60;;;;;;;-0.14;100.00;100138.94;7396105;19;20145;-60
2022/12/08 07:51:08;;;;;;;10.77;5.97;;;;;;;-0.15;100.00;100137.19;7393653;19;20211;-61
2022/12/08 07:53:38;;;;;;;9.65;5.55;;;;;;;-0.08;100.00;100133.47;7396430;19;20123;-61
2022/12/08 07:56:12;;;;;;;9.35;5.78;;;;;;;0.00;100.00;100136.59;7394348;19;20568;-62
2022/12/08 07:58:44;;;;;;;10.35;5.55;;;;;;;-0.09;100.00;100138.41;7395690;19;20506;-61
2022/12/08 08:01:21;;;;;;;9.73;6.47;;;;;;;-0.14;100.00;100141.50;7393672;19;20222;-58
2022/12/08 08:03:54;;;;;;;7.18;4.70;;;;;;;-0.19;100.00;100140.28;7396656;19;20127;-60
2022/12/08 08:06:24;;;;;;;8.70;5.47;;;;;;;-0.22;100.00;100139.16;7394360;19;20560;-61
2022/12/08 08:08:54;;;;;;;11.00;5.72;;;;;;;-0.15;100.00;100137.19;7395420;19;20593;-58
2022/12/08 08:11:23;;;;;;;12.98;6.60;;;;;;;-0.18;100.00;100141.16;7392958;19;20202;-61
2022/12/08 08:13:53;;;;;;;9.90;5.50;;;;;;;-0.21;100.00;100140.94;7396159;19;20134;-62
2022/12/08 08:16:23;;;;;;;13.43;6.68;;;;;;;-0.28;100.00;100144.66;7395202;19;20656;-61
2022/12/08 08:18:55;;;;;;;10.77;6.18;;;;;;;-0.11;100.00;100142.50;7395685;19;20131;-60
2022/12/08 08:21:25;;;;;;;11.75;6.70;;;;;;;-0.02;100.00;100143.19;7392826;19;20194;-61
2022/12/08 08:24:14;;;;;;;12.10;6.70;;;;;;;-0.08;100.00;100137.66;7396445;19;20132;-61
2022/12/08 08:26:43;;;;;;;10.95;7.13;;;;;;;-0.03;100.00;100133.81;7392991;19;20213;-59
2022/12/08 08:29:13;;;;;;;10.83;7.00;;;;;;;0.06;100.00;100138.69;7395059;19;20168;-61
2022/12/08 08:31:42;;;;;;;13.13;7.15;;;;;;;-0.04;100.00;100134.59;7392014;19;20412;-60
2022/12/08 08:34:15;;;;;;;11.45;6.10;;;;;;;-0.08;100.00;100145.25;7395849;19;20131;-60
2022/12/08 08:36:44;;;;;;;10.13;5.95;;;;;;;0.04;100.00;100138.56;7391934;19;20249;-61
2022/12/08 08:39:15;;;;;;;11.55;7.72;;;;;;;0.03;100.00;100144.41;7393895;19;20497;-62
2022/12/08 08:41:44;;;;;;;15.85;7.63;;;;;;;0.01;100.00;100145.97;7392017;19;20213;-62
2022/12/08 08:44:16;;;;;;;11.25;6.35;;;;;;;-0.02;100.00;100139.00;7395218;19;20127;-62
2022/12/08 08:46:45;;;;;;;9.50;5.57;;;;;;;0.05;100.00;100139.47;7393356;19;20558;-61
2022/12/08 08:49:17;;;;;;;14.77;7.40;;;;;;;0.00;100.00;100136.59;7394195;19;20131;-62
2022/12/08 08:51:47;;;;;;;14.80;8.02;;;;;;;0.01;100.00;100143.41;7392976;19;20398;-62
2022/12/08 08:54:17;;;;;;;10.07;5.55;;;;;;;-0.08;100.00;100142.72;7395019;19;20145;-58
2022/12/08 08:56:47;;;;;;;13.27;7.40;;;;;;;-0.10;100.00;100139.19;7393346;19;20190;-62
2022/12/08 08:59:16;;;;;;;10.90;6.45;;;;;;;-0.15;100.00;100142.25;7394217;19;20371;-62
2022/12/08 09:01:46;;;;;;;11.73;7.27;;;;;;;-0.20;100.00;100145.22;7392059;19;20197;-60
2022/12/08 09:04:18;;;;;;;12.13;7.60;;;;;;;-0.23;100.00;100153.50;7394934;19;20897;-58
2022/12/08 09:06:48;;;;;;;10.68;6.30;;;;;;;-0.32;100.00;100148.59;7392082;19;20440;-60
2022/12/08 09:09:18;;;;;;;14.98;7.65;;;;;;;-0.29;100.00;100147.97;7394394;19;20601;-57
2022/12/08 09:11:47;;;;;;;15.77;8.15;;;;;;;-0.25;100.00;100149.06;7393416;19;20190;-61
2022/12/08 09:14:17;;;;;;;12.50;7.25;;;;;;;-0.30;100.00;100144.53;7394535;19;20130;-62
2022/12/08 09:16:46;;;;;;;11.80;7.07;;;;;;;-0.35;100.00;100152.56;7391586;19;20551;-61
2022/12/08 09:19:18;;;;;;;13.53;7.47;;;;;;;-0.50;100.00;100153.19;7393577;19;20387;-61
2022/12/08 09:21:48;;;;;;;14.73;7.97;;;;;;;-0.54;100.00;100151.16;7391468;19;20438;-60
2022/12/08 09:24:17;;;;;;;10.88;6.80;;;;;;;-0.55;100.00;100154.47;7394194;19;20126;-61
2022/12/08 09:26:47;;;;;;;12.48;7.18;;;;;;;-0.58;100.00;100156.75;7391107;19;20198;-59
2022/12/08 09:29:16;;;;;;;14.50;7.60;;;;;;;-0.46;100.00;100155.16;7393444;19;20511;-61
2022/12/08 09:31:46;;;;;;;16.33;8.70;;;;;;;-0.35;100.00;100158.53;7389666;19;20202;-59
2022/12/08 09:34:18;;;;;;;16.33;7.53;;;;;;;-0.49;100.00;100160.00;7393514;19;20640;-59
2022/12/08 09:36:47;;;;;;;20.23;10.18;;;;;;;-0.50;100.00;100163.31;7391743;19;20407;-60
2022/12/08 09:39:17;;;;;;;20.60;10.27;;;;;;;-0.37;100.00;100169.31;7395381;19;20475;-60
2022/12/08 09:41:51;;;;;;;18.25;9.68;;;;;;;-0.42;100.00;100162.25;7390885;19;20202;-61
2022/12/08 09:44:49;;;;;;;14.23;8.20;;;;;;;-0.37;100.00;100169.31;7393743;19;20503;-61
2022/12/08 09:47:23;;;;;;;13.45;7.82;;;;;;;-0.37;100.00;100169.31;7388959;19;20190;-61
2022/12/08 09:50:03;;;;;;;18.95;8.52;;;;;;;-0.38;100.00;100175.13;7392346;19;20163;-58
2022/12/08 09:52:36;;;;;;;16.10;8.00;;;;;;;-0.38;100.00;100167.53;7389703;19;20186;-61
2022/12/08 09:55:14;;;;;;;13.50;7.93;;;;;;;-0.45;100.00;100171.25;7390384;19;20186;-59
2022/12/08 09:57:43;;;;;;;14.02;7.60;;;;;;;-0.41;100.00;100174.13;7392905;19;20126;-60
2022/12/08 10:00:14;;;;;;;15.98;8.10;;;;;;;-0.48;100.00;100169.38;7388652;19;20166;-60
2022/12/08 10:02:44;;;;;;;12.80;7.80;;;;;;;-0.51;100.00;100176.72;7391202;19;20162;-61
2022/12/08 10:05:17;;;;;;;14.88;8.73;;;;;;;-0.48;100.00;100181.16;7393342;19;20410;-60
2022/12/08 10:07:49;;;;;;;15.73;8.68;;;;;;;-0.39;100.00;100183.50;7395257;19;20198;-62
2022/12/08 10:10:29;;;;;;;13.27;8.15;;;;;;;-0.35;100.00;100181.34;7389099;19;20208;-62
2022/12/08 10:13:04;;;;;;;16.17;9.10;;;;;;;-0.37;100.00;100193.00;7397256;19;20127;-61
2022/12/08 10:15:42;;;;;;;14.48;7.70;;;;;;;-0.42;100.00;100192.66;7390330;19;20216;-62
2022/12/08 10:18:21;;;;;;;13.35;6.95;;;;;;;-0.36;100.00;100193.91;7394865;19;20134;-63
2022/12/08 10:20:54;;;;;;;9.70;5.50;;;;;;;-0.43;100.00;100193.44;7390673;19;20838;-62
2022/12/08 10:23:29;;;;;;;9.35;5.20;;;;;;;-0.30;100.00;100190.16;7392111;19;20504;-62
2022/12/08 10:26:03;;;;;;;10.30;5.70;;;;;;;-0.46;100.00;100185.56;7389905;19;20197;-63
2022/12/08 10:28:33;;;;;;;12.88;6.50;;;;;;;-0.45;100.00;100182.28;7391109;19;20140;-63
2022/12/08 10:31:17;;;;;;;9.27;5.22;;;;;;;-0.39;100.00;100183.50;7386969;19;20201;-63
2022/12/08 10:33:49;;;;;;;9.67;5.07;;;;;;;-0.45;100.00;100189.88;7391365;19;20130;-63
2022/12/08 10:36:21;;;;;;;9.15;4.95;;;;;;;-0.32;100.00;100180.66;7389375;19;20410;-62
2022/12/08 10:38:50;;;;;;;13.48;5.85;;;;;;;-0.06;100.00;100177.59;7390297;19;20155;-62
2022/12/08 10:41:20;;;;;;;15.73;7.82;;;;;;;-0.19;100.00;100188.47;7387966;19;20194;-63
2022/12/08 10:43:51;;;;;;;10.57;6.00;;;;;;;-0.29;100.00;100184.31;7391122;19;20494;-61
2022/12/08 10:46:24;;;;;;;11.77;6.20;;;;;;;-0.32;100.00;100188.28;7388919;19;20768;-62
2022/12/08 10:48:55;;;;;;;11.73;6.20;;;;;;;-0.19;100.00;100188.47;7389354;19;20131;-62
2022/12/08 10:51:30;;;;;;;12.23;6.65;;;;;;;-0.15;100.00;100187.91;7388225;19;20202;-62
2022/12/08 10:54:00;;;;;;;12.85;6.20;;;;;;;-0.19;100.00;100190.09;7391401;19;20139;-61
2022/12/08 10:56:30;;;;;;;13.50;6.20;;;;;;;-0.17;100.00;100188.56;7387205;19;20656;-62
2022/12/08 10:59:16;;;;;;;14.95;7.38;;;;;;;-0.15;100.00;100185.38;7390693;19;20127;-60
2022/12/08 11:01:48;;;;;;;14.95;7.10;;;;;;;-0.24;100.00;100192.31;7387133;19;20226;-61
2022/12/08 11:04:20;;;;;;;11.93;6.25;;;;;;;-0.26;100.00;100183.66;7398958;19;20501;-63
2022/12/08 11:06:53;;;;;;;11.67;6.20;;;;;;;-0.18;100.00;100181.72;7395188;19;20190;-62
2022/12/08 11:09:37;;;;;;;10.45;5.88;;;;;;;-0.30;100.00;100195.22;7397418;19;20988;-61
2022/12/08 11:12:13;;;;;;;8.23;5.40;;;;;;;-0.26;100.00;100198.03;7395617;19;20186;-62
2022/12/08 11:14:52;;;;;;;14.10;7.20;;;;;;;-0.17;100.00;100199.59;7397672;19;20135;-62
2022/12/08 11:17:28;;;;;;;19.05;8.27;;;;;;;-0.22;100.00;100203.44;7395352;19;20194;-62
2022/12/08 11:20:00;;;;;;;14.25;5.53;;;;;;;-0.27;100.00;100207.28;7395145;19;20162;-61
2022/12/08 11:22:35;;;;;;;8.05;4.60;;;;;;;-0.09;100.00;100201.84;7396936;19;20135;-63
2022/12/08 11:25:12;;;;;;;7.75;4.88;;;;;;;-0.06;100.00;100197.88;7395582;19;20488;-60
2022/12/08 11:27:43;;;;;;;8.73;5.03;;;;;;;-0.09;100.00;100199.28;7396942;19;20138;-63
2022/12/08 11:30:15;;;;;;;8.30;5.05;;;;;;;-0.07;100.00;100192.69;7391445;19;20193;-62
2022/12/08 11:32:48;;;;;;;14.25;5.65;;;;;;;-0.17;100.00;100207.22;7395461;19;20251;-62
2022/12/08 11:35:24;;;;;;;14.10;6.78;;;;;;;-0.15;100.00;100198.06;7395337;19;20645;-62
2022/12/08 11:37:59;;;;;;;10.93;5.60;;;;;;;-0.17;100.00;100204.69;7397653;19;20123;-63
2022/12/08 11:40:50;;;;;;;11.37;5.97;;;;;;;-0.08;100.00;100204.50;7393533;19;20198;-60